sensor_id;sensor_type;location;lat;lon;timestamp;pressure;altitude;pressure_sealevel;temperature;humidity
73422;BME280;61637;47.760;-122.022;2023-01-04T00:00:01;101253.06099999999;;;6.2;58.1
73422;BME280;61637;47.760;-122.022;2023-01-04T00:02:00;101253.06099999999;;;6.2;58.1
73422;BME280;61637;47.760;-122.022;2023-01-04T00:04:00;101253.06099999999;;;6.1;58.1
73422;BME280;61637;47.760;-122.022;2023-01-04T00:06:01;101253.06099999999;;;6.1;58.1
73422;BME280;61637;47.760;-122.022;2023-01-04T00:08:00;101253.06099999999;;;6.1;58.1
73422;BME280;61637;47.760;-122.022;2023-01-04T00:10:00;101253.06099999999;;;6.0;58.1
73422;BME280;61637;47.760;-122.022;2023-01-04T00:12:01;101253.06099999999;;;5.9;58.1
73422;BME280;61637;47.760;-122.022;2023-01-04T00:14:00;101253.06099999999;;;5.9;58.1
73422;BME280;61637;47.760;-122.022;2023-01-04T00:16:03;101253.06099999999;;;5.8;58.1
73422;BME280;61637;47.760;-122.022;2023-01-04T00:18:00;101253.06099999999;;;5.8;58.1
73422;BME280;61637;47.760;-122.022;2023-01-04T00:20:00;101253.06099999999;;;5.7;58.1
73422;BME280;61637;47.760;-122.022;2023-01-04T00:22:00;101253.06099999999;;;5.7;58.1
73422;BME280;61637;47.760;-122.022;2023-01-04T00:24:01;101253.06099999999;;;5.6;58.1
73422;BME280;61637;47.760;-122.022;2023-01-04T00:26:00;101253.06099999999;;;5.6;58.1
73422;BME280;61637;47.760;-122.022;2023-01-04T00:28:00;101253.06099999999;;;5.4;58.1
73422;BME280;61637;47.760;-122.022;2023-01-04T00:30:00;101253.06099999999;;;5.4;58.1
73422;BME280;61637;47.760;-122.022;2023-01-04T00:32:00;101253.06099999999;;;5.3;58.1
73422;BME280;61637;47.760;-122.022;2023-01-04T00:34:01;101253.06099999999;;;5.3;58.1
73422;BME280;61637;47.760;-122.022;2023-01-04T00:36:01;101253.06099999999;;;5.3;58.1
73422;BME280;61637;47.760;-122.022;2023-01-04T00:38:01;101253.06099999999;;;5.3;58.1
73422;BME280;61637;47.760;-122.022;2023-01-04T00:40:00;101253.06099999999;;;5.2;58.1
73422;BME280;61637;47.760;-122.022;2023-01-04T00:42:00;101253.06099999999;;;5.2;58.1
73422;BME280;61637;47.760;-122.022;2023-01-04T00:44:00;101253.06099999999;;;5.2;58.1
73422;BME280;61637;47.760;-122.022;2023-01-04T00:46:01;101253.06099999999;;;5.2;58.1
73422;BME280;61637;47.760;-122.022;2023-01-04T00:48:01;101253.06099999999;;;5.1;58.1
73422;BME280;61637;47.760;-122.022;2023-01-04T00:50:00;101253.06099999999;;;5.1;58.1
73422;BME280;61637;47.760;-122.022;2023-01-04T00:52:00;101253.06099999999;;;5.0;58.1
73422;BME280;61637;47.760;-122.022;2023-01-04T00:54:01;101253.06099999999;;;4.9;58.1
73422;BME280;61637;47.760;-122.022;2023-01-04T00:56:00;101253.06099999999;;;4.9;58.1
73422;BME280;61637;47.760;-122.022;2023-01-04T00:58:00;101253.06099999999;;;4.8;58.1
73422;BME280;61637;47.760;-122.022;2023-01-04T01:00:01;101253.06099999999;;;4.9;58.1
73422;BME280;61637;47.760;-122.022;2023-01-04T01:02:00;101253.06099999999;;;4.8;58.1
73422;BME280;61637;47.760;-122.022;2023-01-04T01:04:01;101253.06099999999;;;4.8;58.1
73422;BME280;61637;47.760;-122.022;2023-01-04T01:06:00;101253.06099999999;;;4.8;58.1
73422;BME280;61637;47.760;-122.022;2023-01-04T01:08:01;101253.06099999999;;;4.8;58.1
73422;BME280;61637;47.760;-122.022;2023-01-04T01:10:00;101253.06099999999;;;4.8;58.1
73422;BME280;61637;47.760;-122.022;2023-01-04T01:12:01;101253.06099999999;;;4.7;58.1
73422;BME280;61637;47.760;-122.022;2023-01-04T01:14:00;101253.06099999999;;;4.7;58.1
73422;BME280;61637;47.760;-122.022;2023-01-04T01:16:02;101253.06099999999;;;4.7;58.1
73422;BME280;61637;47.760;-122.022;2023-01-04T01:18:00;101253.06099999999;;;4.7;58.1
73422;BME280;61637;47.760;-122.022;2023-01-04T01:20:01;101253.06099999999;;;4.6;58.1
73422;BME280;61637;47.760;-122.022;2023-01-04T01:22:00;101253.06099999999;;;4.6;58.1
73422;BME280;61637;47.760;-122.022;2023-01-04T01:24:01;101253.06099999999;;;4.5;58.1
73422;BME280;61637;47.760;-122.022;2023-01-04T01:26:01;101253.06099999999;;;4.5;58.1
73422;BME280;61637;47.760;-122.022;2023-01-04T01:28:00;101253.06099999999;;;4.5;58.1
73422;BME280;61637;47.760;-122.022;2023-01-04T01:30:00;101253.06099999999;;;4.4;58.1
73422;BME280;61637;47.760;-122.022;2023-01-04T01:32:00;101253.06099999999;;;4.4;58.1
73422;BME280;61637;47.760;-122.022;2023-01-04T01:34:01;101253.06099999999;;;4.4;58.1
73422;BME280;61637;47.760;-122.022;2023-01-04T01:36:01;101253.06099999999;;;4.3;58.1
73422;BME280;61637;47.760;-122.022;2023-01-04T01:38:01;101253.06099999999;;;4.3;58.1
73422;BME280;61637;47.760;-122.022;2023-01-04T01:40:00;101253.06099999999;;;4.2;58.1
73422;BME280;61637;47.760;-122.022;2023-01-04T01:42:00;101253.06099999999;;;4.2;58.1
73422;BME280;61637;47.760;-122.022;2023-01-04T01:44:04;101253.06099999999;;;4.2;58.1
73422;BME280;61637;47.760;-122.022;2023-01-04T01:46:00;101253.06099999999;;;4.1;58.1
73422;BME280;61637;47.760;-122.022;2023-01-04T01:48:02;101253.06099999999;;;4.1;58.1
73422;BME280;61637;47.760;-122.022;2023-01-04T01:50:00;101253.06099999999;;;4.1;58.1
73422;BME280;61637;47.760;-122.022;2023-01-04T01:52:02;101253.06099999999;;;4.1;58.1
73422;BME280;61637;47.760;-122.022;2023-01-04T01:54:02;101253.06099999999;;;4.1;58.1
73422;BME280;61637;47.760;-122.022;2023-01-04T01:56:00;101253.06099999999;;;4.1;58.1
73422;BME280;61637;47.760;-122.022;2023-01-04T01:58:01;101253.06099999999;;;4.1;58.1
73422;BME280;61637;47.760;-122.022;2023-01-04T02:00:04;101253.06099999999;;;4.1;58.1
73422;BME280;61637;47.760;-122.022;2023-01-04T02:02:00;101253.06099999999;;;4.1;58.1
73422;BME280;61637;47.760;-122.022;2023-01-04T02:04:02;101253.06099999999;;;4.1;58.1
73422;BME280;61637;47.760;-122.022;2023-01-04T02:06:00;101253.06099999999;;;4.1;58.1
73422;BME280;61637;47.760;-122.022;2023-01-04T02:08:01;101253.06099999999;;;4.1;58.1
73422;BME280;61637;47.760;-122.022;2023-01-04T02:10:00;101253.06099999999;;;4.1;58.1
73422;BME280;61637;47.760;-122.022;2023-01-04T02:12:01;101253.06099999999;;;4.1;58.1
73422;BME280;61637;47.760;-122.022;2023-01-04T02:14:00;101253.06099999999;;;4.2;58.1
73422;BME280;61637;47.760;-122.022;2023-01-04T02:16:02;101253.06099999999;;;4.2;58.1
73422;BME280;61637;47.760;-122.022;2023-01-04T02:18:02;101253.06099999999;;;4.2;58.1
73422;BME280;61637;47.760;-122.022;2023-01-04T02:22:08;101253.06099999999;;;4.2;58.1
73422;BME280;61637;47.760;-122.022;2023-01-04T02:24:06;101253.06099999999;;;4.2;58.1
73422;BME280;61637;47.760;-122.022;2023-01-04T02:26:07;101253.06099999999;;;4.2;58.1
73422;BME280;61637;47.760;-122.022;2023-01-04T02:28:01;101253.06099999999;;;4.2;58.1
73422;BME280;61637;47.760;-122.022;2023-01-04T02:32:01;101253.06099999999;;;4.2;58.1
73422;BME280;61637;47.760;-122.022;2023-01-04T02:34:02;101253.06099999999;;;4.1;58.1
73422;BME280;61637;47.760;-122.022;2023-01-04T02:36:03;101253.06099999999;;;4.1;58.1
73422;BME280;61637;47.760;-122.022;2023-01-04T02:38:03;101253.06099999999;;;4.1;58.1
73422;BME280;61637;47.760;-122.022;2023-01-04T02:40:03;101253.06099999999;;;4.1;58.1
73422;BME280;61637;47.760;-122.022;2023-01-04T02:42:03;101253.06099999999;;;4.1;58.1
73422;BME280;61637;47.760;-122.022;2023-01-04T02:44:03;101253.06099999999;;;4.0;58.1
73422;BME280;61637;47.760;-122.022;2023-01-04T02:46:01;101253.06099999999;;;3.9;58.1
73422;BME280;61637;47.760;-122.022;2023-01-04T02:48:01;101253.06099999999;;;3.9;58.1
73422;BME280;61637;47.760;-122.022;2023-01-04T02:50:00;101253.06099999999;;;3.9;58.1
73422;BME280;61637;47.760;-122.022;2023-01-04T02:52:00;101253.06099999999;;;3.8;58.1
73422;BME280;61637;47.760;-122.022;2023-01-04T02:54:01;101253.06099999999;;;3.8;58.1
73422;BME280;61637;47.760;-122.022;2023-01-04T02:56:06;101253.06099999999;;;3.8;58.1
73422;BME280;61637;47.760;-122.022;2023-01-04T02:58:02;101253.06099999999;;;3.8;58.1
73422;BME280;61637;47.760;-122.022;2023-01-04T03:00:05;101253.06099999999;;;3.7;58.1
73422;BME280;61637;47.760;-122.022;2023-01-04T03:02:04;101253.06099999999;;;3.7;58.1
73422;BME280;61637;47.760;-122.022;2023-01-04T03:04:05;101253.06099999999;;;3.7;58.1
73422;BME280;61637;47.760;-122.022;2023-01-04T03:06:02;101253.06099999999;;;3.6;58.1
73422;BME280;61637;47.760;-122.022;2023-01-04T03:08:04;101253.06099999999;;;3.6;58.1
73422;BME280;61637;47.760;-122.022;2023-01-04T03:10:03;101253.06099999999;;;3.5;58.1
73422;BME280;61637;47.760;-122.022;2023-01-04T03:12:01;101253.06099999999;;;3.4;58.1
73422;BME280;61637;47.760;-122.022;2023-01-04T03:14:03;101253.06099999999;;;3.4;58.1
73422;BME280;61637;47.760;-122.022;2023-01-04T03:16:01;101253.06099999999;;;3.4;58.1
73422;BME280;61637;47.760;-122.022;2023-01-04T03:18:04;101253.06099999999;;;3.4;58.1
73422;BME280;61637;47.760;-122.022;2023-01-04T03:20:00;101253.06099999999;;;3.3;58.1
73422;BME280;61637;47.760;-122.022;2023-01-04T03:22:01;101253.06099999999;;;3.3;58.1
73422;BME280;61637;47.760;-122.022;2023-01-04T03:24:01;101253.06099999999;;;3.3;58.1
73422;BME280;61637;47.760;-122.022;2023-01-04T03:26:02;101253.06099999999;;;3.2;58.1
73422;BME280;61637;47.760;-122.022;2023-01-04T03:28:00;101253.06099999999;;;3.2;58.1
73422;BME280;61637;47.760;-122.022;2023-01-04T03:30:02;101253.06099999999;;;3.2;58.1
73422;BME280;61637;47.760;-122.022;2023-01-04T03:32:02;101253.06099999999;;;3.1;58.1
73422;BME280;61637;47.760;-122.022;2023-01-04T03:34:01;101253.06099999999;;;3.1;58.1
73422;BME280;61637;47.760;-122.022;2023-01-04T03:36:02;101253.06099999999;;;3.1;58.1
73422;BME280;61637;47.760;-122.022;2023-01-04T03:38:01;101253.06099999999;;;3.0;58.1
73422;BME280;61637;47.760;-122.022;2023-01-04T03:40:10;101253.06099999999;;;2.9;58.1
73422;BME280;61637;47.760;-122.022;2023-01-04T03:42:03;101253.06099999999;;;2.9;58.1
73422;BME280;61637;47.760;-122.022;2023-01-04T03:44:02;101253.06099999999;;;2.9;58.1
73422;BME280;61637;47.760;-122.022;2023-01-04T03:46:02;101253.06099999999;;;2.8;58.1
73422;BME280;61637;47.760;-122.022;2023-01-04T03:48:02;101253.06099999999;;;2.8;58.1
73422;BME280;61637;47.760;-122.022;2023-01-04T03:50:02;101253.06099999999;;;2.8;58.1
73422;BME280;61637;47.760;-122.022;2023-01-04T03:52:01;101253.06099999999;;;2.8;58.1
73422;BME280;61637;47.760;-122.022;2023-01-04T03:54:02;101253.06099999999;;;2.7;58.1
73422;BME280;61637;47.760;-122.022;2023-01-04T03:56:00;101253.06099999999;;;2.7;58.1
73422;BME280;61637;47.760;-122.022;2023-01-04T03:58:01;101253.06099999999;;;2.7;58.1
73422;BME280;61637;47.760;-122.022;2023-01-04T04:00:02;101253.06099999999;;;2.7;58.1
73422;BME280;61637;47.760;-122.022;2023-01-04T04:02:01;101253.06099999999;;;2.6;58.1
73422;BME280;61637;47.760;-122.022;2023-01-04T04:04:01;101253.06099999999;;;2.7;58.1
73422;BME280;61637;47.760;-122.022;2023-01-04T04:06:00;101253.06099999999;;;2.6;58.1
73422;BME280;61637;47.760;-122.022;2023-01-04T04:08:01;101253.06099999999;;;2.6;58.1
73422;BME280;61637;47.760;-122.022;2023-01-04T04:10:01;101253.06099999999;;;2.6;58.1
73422;BME280;61637;47.760;-122.022;2023-01-04T04:12:00;101253.06099999999;;;2.7;58.1
73422;BME280;61637;47.760;-122.022;2023-01-04T04:14:00;101253.06099999999;;;2.7;58.1
73422;BME280;61637;47.760;-122.022;2023-01-04T04:16:00;101253.06099999999;;;2.7;58.1
73422;BME280;61637;47.760;-122.022;2023-01-04T04:18:00;101253.06099999999;;;2.7;58.1
73422;BME280;61637;47.760;-122.022;2023-01-04T04:20:00;101253.06099999999;;;2.7;58.1
73422;BME280;61637;47.760;-122.022;2023-01-04T04:22:01;101253.06099999999;;;2.7;58.1
73422;BME280;61637;47.760;-122.022;2023-01-04T04:24:00;101253.06099999999;;;2.7;58.1
73422;BME280;61637;47.760;-122.022;2023-01-04T04:26:00;101253.06099999999;;;2.7;58.1
73422;BME280;61637;47.760;-122.022;2023-01-04T04:28:00;101253.06099999999;;;2.6;58.1
73422;BME280;61637;47.760;-122.022;2023-01-04T04:30:00;101253.06099999999;;;2.7;58.1
73422;BME280;61637;47.760;-122.022;2023-01-04T04:32:00;101253.06099999999;;;2.6;58.1
73422;BME280;61637;47.760;-122.022;2023-01-04T04:34:01;101253.06099999999;;;2.6;58.1
73422;BME280;61637;47.760;-122.022;2023-01-04T04:36:00;101253.06099999999;;;2.6;58.1
73422;BME280;61637;47.760;-122.022;2023-01-04T04:38:00;101253.06099999999;;;2.6;58.1
73422;BME280;61637;47.760;-122.022;2023-01-04T04:40:00;101253.06099999999;;;2.5;58.1
73422;BME280;61637;47.760;-122.022;2023-01-04T04:42:00;101253.06099999999;;;2.5;58.1
73422;BME280;61637;47.760;-122.022;2023-01-04T04:44:01;101253.06099999999;;;2.4;58.1
73422;BME280;61637;47.760;-122.022;2023-01-04T04:46:01;101253.06099999999;;;2.4;58.1
73422;BME280;61637;47.760;-122.022;2023-01-04T04:48:00;101253.06099999999;;;2.4;58.1
73422;BME280;61637;47.760;-122.022;2023-01-04T04:50:00;101253.06099999999;;;2.4;58.1
73422;BME280;61637;47.760;-122.022;2023-01-04T04:52:00;101253.06099999999;;;2.4;58.1
73422;BME280;61637;47.760;-122.022;2023-01-04T04:54:01;101253.06099999999;;;2.4;58.1
73422;BME280;61637;47.760;-122.022;2023-01-04T04:56:00;101253.06099999999;;;2.4;58.1
73422;BME280;61637;47.760;-122.022;2023-01-04T04:58:01;101253.06099999999;;;2.4;58.1
73422;BME280;61637;47.760;-122.022;2023-01-04T05:00:00;101253.06099999999;;;2.4;58.1
73422;BME280;61637;47.760;-122.022;2023-01-04T05:02:01;101253.06099999999;;;2.5;58.1
73422;BME280;61637;47.760;-122.022;2023-01-04T05:04:00;101253.06099999999;;;2.5;58.1
73422;BME280;61637;47.760;-122.022;2023-01-04T05:06:00;101253.06099999999;;;2.6;58.1
73422;BME280;61637;47.760;-122.022;2023-01-04T05:08:00;101253.06099999999;;;2.6;58.1
73422;BME280;61637;47.760;-122.022;2023-01-04T05:10:01;101253.06099999999;;;2.6;58.1
73422;BME280;61637;47.760;-122.022;2023-01-04T05:12:00;101253.06099999999;;;2.6;58.1
73422;BME280;61637;47.760;-122.022;2023-01-04T05:14:00;101253.06099999999;;;2.6;58.1
73422;BME280;61637;47.760;-122.022;2023-01-04T05:16:01;101253.06099999999;;;2.6;58.1
73422;BME280;61637;47.760;-122.022;2023-01-04T05:18:00;101253.06099999999;;;2.7;58.1
73422;BME280;61637;47.760;-122.022;2023-01-04T05:20:01;101253.06099999999;;;2.7;58.1
73422;BME280;61637;47.760;-122.022;2023-01-04T05:22:01;101253.06099999999;;;2.7;58.1
73422;BME280;61637;47.760;-122.022;2023-01-04T05:24:00;101253.06099999999;;;2.7;58.1
73422;BME280;61637;47.760;-122.022;2023-01-04T05:26:00;101253.06099999999;;;2.8;58.1
73422;BME280;61637;47.760;-122.022;2023-01-04T05:28:00;101253.06099999999;;;2.9;58.1
73422;BME280;61637;47.760;-122.022;2023-01-04T05:30:00;101253.06099999999;;;2.9;58.1
73422;BME280;61637;47.760;-122.022;2023-01-04T05:32:00;101253.06099999999;;;2.9;58.1
73422;BME280;61637;47.760;-122.022;2023-01-04T05:34:01;101253.06099999999;;;2.9;58.1
73422;BME280;61637;47.760;-122.022;2023-01-04T05:36:01;101253.06099999999;;;2.8;58.1
73422;BME280;61637;47.760;-122.022;2023-01-04T05:38:00;101253.06099999999;;;2.8;58.1
73422;BME280;61637;47.760;-122.022;2023-01-04T05:40:00;101253.06099999999;;;2.8;58.1
73422;BME280;61637;47.760;-122.022;2023-01-04T05:42:00;101253.06099999999;;;2.8;58.1
73422;BME280;61637;47.760;-122.022;2023-01-04T05:44:00;101253.06099999999;;;2.7;58.1
73422;BME280;61637;47.760;-122.022;2023-01-04T05:46:01;101253.06099999999;;;2.7;58.1
73422;BME280;61637;47.760;-122.022;2023-01-04T05:48:00;101253.06099999999;;;2.7;58.1
73422;BME280;61637;47.760;-122.022;2023-01-04T05:50:00;101253.06099999999;;;2.6;58.1
73422;BME280;61637;47.760;-122.022;2023-01-04T05:52:00;101253.06099999999;;;2.6;58.1
73422;BME280;61637;47.760;-122.022;2023-01-04T05:54:00;101253.06099999999;;;2.6;58.1
73422;BME280;61637;47.760;-122.022;2023-01-04T05:56:00;101253.06099999999;;;2.5;58.1
73422;BME280;61637;47.760;-122.022;2023-01-04T05:58:01;101253.06099999999;;;2.6;58.1
73422;BME280;61637;47.760;-122.022;2023-01-04T06:00:01;101253.06099999999;;;2.5;58.1
73422;BME280;61637;47.760;-122.022;2023-01-04T06:02:00;101253.06099999999;;;2.6;58.1
73422;BME280;61637;47.760;-122.022;2023-01-04T06:04:00;101253.06099999999;;;2.6;58.1
73422;BME280;61637;47.760;-122.022;2023-01-04T06:06:00;101253.06099999999;;;2.5;58.1
73422;BME280;61637;47.760;-122.022;2023-01-04T06:08:00;101253.06099999999;;;2.5;58.1
73422;BME280;61637;47.760;-122.022;2023-01-04T06:10:01;101253.06099999999;;;2.4;58.1
73422;BME280;61637;47.760;-122.022;2023-01-04T06:12:00;101253.06099999999;;;2.4;58.1
73422;BME280;61637;47.760;-122.022;2023-01-04T06:14:00;101253.06099999999;;;2.4;58.1
73422;BME280;61637;47.760;-122.022;2023-01-04T06:16:00;101253.06099999999;;;2.3;58.1
73422;BME280;61637;47.760;-122.022;2023-01-04T06:18:01;101253.06099999999;;;2.3;58.1
73422;BME280;61637;47.760;-122.022;2023-01-04T06:20:01;101253.06099999999;;;2.3;58.1
73422;BME280;61637;47.760;-122.022;2023-01-04T06:22:01;101253.06099999999;;;2.3;58.1
73422;BME280;61637;47.760;-122.022;2023-01-04T06:24:00;101253.06099999999;;;2.3;58.1
73422;BME280;61637;47.760;-122.022;2023-01-04T06:26:00;101253.06099999999;;;2.2;58.1
73422;BME280;61637;47.760;-122.022;2023-01-04T06:28:00;101253.06099999999;;;2.2;58.1
73422;BME280;61637;47.760;-122.022;2023-01-04T06:30:00;101253.06099999999;;;2.2;58.1
73422;BME280;61637;47.760;-122.022;2023-01-04T06:32:00;101253.06099999999;;;2.2;58.1
73422;BME280;61637;47.760;-122.022;2023-01-04T06:34:01;101253.06099999999;;;2.2;58.1
73422;BME280;61637;47.760;-122.022;2023-01-04T06:36:00;101253.06099999999;;;2.2;58.1
73422;BME280;61637;47.760;-122.022;2023-01-04T06:38:00;101253.06099999999;;;2.3;58.1
73422;BME280;61637;47.760;-122.022;2023-01-04T06:40:00;101253.06099999999;;;2.3;58.1
73422;BME280;61637;47.760;-122.022;2023-01-04T06:42:00;101253.06099999999;;;2.3;58.1
73422;BME280;61637;47.760;-122.022;2023-01-04T06:44:00;101253.06099999999;;;2.3;58.1
73422;BME280;61637;47.760;-122.022;2023-01-04T06:46:01;101253.06099999999;;;2.4;58.1
73422;BME280;61637;47.760;-122.022;2023-01-04T06:48:00;101253.06099999999;;;2.4;58.1
73422;BME280;61637;47.760;-122.022;2023-01-04T06:50:00;101253.06099999999;;;2.4;58.1
73422;BME280;61637;47.760;-122.022;2023-01-04T06:52:00;101253.06099999999;;;2.4;58.1
73422;BME280;61637;47.760;-122.022;2023-01-04T06:54:00;101253.06099999999;;;2.4;58.1
73422;BME280;61637;47.760;-122.022;2023-01-04T06:56:00;101253.06099999999;;;2.4;58.1
73422;BME280;61637;47.760;-122.022;2023-01-04T06:58:01;101253.06099999999;;;2.5;58.1
73422;BME280;61637;47.760;-122.022;2023-01-04T07:00:01;101253.06099999999;;;2.6;58.1
73422;BME280;61637;47.760;-122.022;2023-01-04T07:02:00;101253.06099999999;;;2.6;58.1
73422;BME280;61637;47.760;-122.022;2023-01-04T07:04:00;101253.06099999999;;;2.6;58.1
73422;BME280;61637;47.760;-122.022;2023-01-04T07:06:02;101253.06099999999;;;2.6;58.1
73422;BME280;61637;47.760;-122.022;2023-01-04T07:08:01;101253.06099999999;;;2.6;58.1
73422;BME280;61637;47.760;-122.022;2023-01-04T07:10:01;101253.06099999999;;;2.6;58.1
73422;BME280;61637;47.760;-122.022;2023-01-04T07:12:01;101253.06099999999;;;2.5;58.1
73422;BME280;61637;47.760;-122.022;2023-01-04T07:14:00;101253.06099999999;;;2.5;58.1
73422;BME280;61637;47.760;-122.022;2023-01-04T07:16:00;101253.06099999999;;;2.5;58.1
73422;BME280;61637;47.760;-122.022;2023-01-04T07:18:00;101253.06099999999;;;2.6;58.1
73422;BME280;61637;47.760;-122.022;2023-01-04T07:20:00;101253.06099999999;;;2.6;58.1
73422;BME280;61637;47.760;-122.022;2023-01-04T07:22:01;101591.7;;;2.7;58.1
73422;BME280;61637;47.760;-122.022;2023-01-04T07:24:00;101591.7;;;2.8;58.1
73422;BME280;61637;47.760;-122.022;2023-01-04T07:26:01;101591.7;;;2.8;58.1
73422;BME280;61637;47.760;-122.022;2023-01-04T07:28:01;101591.7;;;2.9;58.1
73422;BME280;61637;47.760;-122.022;2023-01-04T07:30:00;101591.7;;;2.9;58.1
73422;BME280;61637;47.760;-122.022;2023-01-04T07:32:00;101591.7;;;3.1;58.1
73422;BME280;61637;47.760;-122.022;2023-01-04T07:34:01;101591.7;;;3.1;58.1
73422;BME280;61637;47.760;-122.022;2023-01-04T07:36:01;101591.7;;;3.1;58.1
73422;BME280;61637;47.760;-122.022;2023-01-04T07:38:00;101591.7;;;3.2;58.1
73422;BME280;61637;47.760;-122.022;2023-01-04T07:40:00;101591.7;;;3.3;58.1
73422;BME280;61637;47.760;-122.022;2023-01-04T07:42:00;101591.7;;;3.4;58.1
73422;BME280;61637;47.760;-122.022;2023-01-04T07:44:00;101591.7;;;3.4;58.1
73422;BME280;61637;47.760;-122.022;2023-01-04T07:46:01;101591.7;;;3.5;58.1
73422;BME280;61637;47.760;-122.022;2023-01-04T07:48:00;101591.7;;;3.6;58.1
73422;BME280;61637;47.760;-122.022;2023-01-04T07:50:00;101591.7;;;3.7;58.1
73422;BME280;61637;47.760;-122.022;2023-01-04T07:52:00;101591.7;;;3.8;58.1
73422;BME280;61637;47.760;-122.022;2023-01-04T07:54:00;101591.7;;;3.8;58.1
73422;BME280;61637;47.760;-122.022;2023-01-04T07:56:00;101591.7;;;3.8;58.1
73422;BME280;61637;47.760;-122.022;2023-01-04T07:58:01;101591.7;;;3.9;58.1
73422;BME280;61637;47.760;-122.022;2023-01-04T08:00:01;101591.7;;;3.8;58.1
73422;BME280;61637;47.760;-122.022;2023-01-04T08:02:00;101591.7;;;3.8;58.1
73422;BME280;61637;47.760;-122.022;2023-01-04T08:04:00;101591.7;;;3.8;58.1
73422;BME280;61637;47.760;-122.022;2023-01-04T08:06:01;101591.7;;;3.8;58.1
73422;BME280;61637;47.760;-122.022;2023-01-04T08:08:00;101591.7;;;3.8;58.1
73422;BME280;61637;47.760;-122.022;2023-01-04T08:10:01;101591.7;;;3.8;58.1
73422;BME280;61637;47.760;-122.022;2023-01-04T08:12:00;101591.7;;;3.8;58.1
73422;BME280;61637;47.760;-122.022;2023-01-04T08:14:00;101591.7;;;3.7;58.1
73422;BME280;61637;47.760;-122.022;2023-01-04T08:16:00;101591.7;;;3.7;58.1
73422;BME280;61637;47.760;-122.022;2023-01-04T08:18:00;101591.7;;;3.7;58.1
73422;BME280;61637;47.760;-122.022;2023-01-04T08:20:00;101591.7;;;3.7;58.1
73422;BME280;61637;47.760;-122.022;2023-01-04T08:22:01;101591.7;;;3.7;58.1
73422;BME280;61637;47.760;-122.022;2023-01-04T08:24:01;101591.7;;;3.7;58.1
73422;BME280;61637;47.760;-122.022;2023-01-04T08:26:01;101591.7;;;3.7;58.1
73422;BME280;61637;47.760;-122.022;2023-01-04T08:28:00;101591.7;;;3.7;58.1
73422;BME280;61637;47.760;-122.022;2023-01-04T08:30:00;101591.7;;;3.7;58.1
73422;BME280;61637;47.760;-122.022;2023-01-04T08:32:00;101591.7;;;3.7;58.1
73422;BME280;61637;47.760;-122.022;2023-01-04T08:34:01;101591.7;;;3.7;58.1
73422;BME280;61637;47.760;-122.022;2023-01-04T08:36:08;101591.7;;;3.7;58.1
73422;BME280;61637;47.760;-122.022;2023-01-04T08:38:00;101591.7;;;3.7;58.1
73422;BME280;61637;47.760;-122.022;2023-01-04T08:40:01;101591.7;;;3.7;58.1
73422;BME280;61637;47.760;-122.022;2023-01-04T08:42:00;101591.7;;;3.8;58.1
73422;BME280;61637;47.760;-122.022;2023-01-04T08:44:00;101591.7;;;3.8;58.1
73422;BME280;61637;47.760;-122.022;2023-01-04T08:46:01;101591.7;;;3.8;58.1
73422;BME280;61637;47.760;-122.022;2023-01-04T08:48:00;101591.7;;;3.9;58.1
73422;BME280;61637;47.760;-122.022;2023-01-04T08:50:00;101591.7;;;4.0;58.1
73422;BME280;61637;47.760;-122.022;2023-01-04T08:52:00;101591.7;;;4.0;58.1
73422;BME280;61637;47.760;-122.022;2023-01-04T08:54:00;101591.7;;;4.1;58.1
73422;BME280;61637;47.760;-122.022;2023-01-04T08:56:00;101591.7;;;4.1;58.1
73422;BME280;61637;47.760;-122.022;2023-01-04T08:58:01;101591.7;;;4.0;58.1
73422;BME280;61637;47.760;-122.022;2023-01-04T09:00:01;101591.7;;;3.9;58.1
73422;BME280;61637;47.760;-122.022;2023-01-04T09:02:00;101591.7;;;3.9;58.1
73422;BME280;61637;47.760;-122.022;2023-01-04T09:04:00;101591.7;;;4.0;58.1
73422;BME280;61637;47.760;-122.022;2023-01-04T09:06:01;101591.7;;;4.1;58.1
73422;BME280;61637;47.760;-122.022;2023-01-04T09:08:00;101591.7;;;4.1;58.1
73422;BME280;61637;47.760;-122.022;2023-01-04T09:10:01;101591.7;;;4.1;58.1
73422;BME280;61637;47.760;-122.022;2023-01-04T09:12:00;101591.7;;;4.1;58.1
73422;BME280;61637;47.760;-122.022;2023-01-04T09:14:00;101591.7;;;4.1;58.1
73422;BME280;61637;47.760;-122.022;2023-01-04T09:16:01;101591.7;;;4.2;58.1
73422;BME280;61637;47.760;-122.022;2023-01-04T09:18:01;101591.7;;;4.2;58.1
73422;BME280;61637;47.760;-122.022;2023-01-04T09:20:00;101591.7;;;4.2;58.1
73422;BME280;61637;47.760;-122.022;2023-01-04T09:22:01;101591.7;;;4.2;58.1
73422;BME280;61637;47.760;-122.022;2023-01-04T09:24:01;101591.7;;;4.3;58.1
73422;BME280;61637;47.760;-122.022;2023-01-04T09:26:04;101591.7;;;4.3;58.1
73422;BME280;61637;47.760;-122.022;2023-01-04T09:28:00;101591.7;;;4.4;58.1
73422;BME280;61637;47.760;-122.022;2023-01-04T09:30:00;101591.7;;;4.4;58.1
73422;BME280;61637;47.760;-122.022;2023-01-04T09:32:00;101591.7;;;4.3;58.1
73422;BME280;61637;47.760;-122.022;2023-01-04T09:34:01;101591.7;;;4.3;58.1
73422;BME280;61637;47.760;-122.022;2023-01-04T09:36:01;101591.7;;;4.3;58.1
73422;BME280;61637;47.760;-122.022;2023-01-04T09:38:00;101591.7;;;4.2;58.1
73422;BME280;61637;47.760;-122.022;2023-01-04T09:40:00;101591.7;;;4.2;58.1